Time;durP1;ratioP1;P1;durP2;ratioP2;P2;SDS_P1;SDS_P2;PMS_P1;PMS_P2;Temp;Humidity;BMP_temperature;BMP_pressure;BME280_temperature;BME280_humidity;BME280_pressure;Samples;Min_cycle;Max_cycle;Signal;HPM_P1;HPM_P2
2022/04/03 00:03:06;;;;;;;25.10;15.02;;;3.10;97.40;;;;;;6163110;28;20117;-81
2022/04/03 00:22:29;;;;;;;34.30;14.90;;;2.70;97.80;;;;;;5975930;29;20116;-81
2022/04/03 00:26:39;;;;;;;31.63;14.93;;;2.70;97.80;;;;;;5988506;29;20117;-80
2022/04/03 00:33:54;;;;;;;40.85;15.10;;;2.80;97.90;;;;;;6101048;28;20050;-81
2022/04/03 00:37:21;;;;;;;36.92;15.93;;;2.90;97.90;;;;;;6196213;28;20455;-81
2022/04/03 00:40:33;;;;;;;35.05;16.38;;;3.00;97.80;;;;;;6189795;28;20046;-82
2022/04/03 00:43:35;;;;;;;35.47;15.35;;;3.00;97.70;;;;;;6217800;28;20061;-80
2022/04/03 00:46:59;;;;;;;34.72;16.35;;;3.00;97.70;;;;;;6204489;28;20115;-81
2022/04/03 00:50:01;;;;;;;36.65;16.27;;;2.90;97.70;;;;;;6205147;28;20072;-82
2022/04/03 00:53:03;;;;;;;49.08;18.65;;;2.90;97.70;;;;;;6205602;28;20077;-82
2022/04/03 00:56:11;;;;;;;43.03;16.13;;;3.00;97.80;;;;;;6207215;28;20134;-82
2022/04/03 00:59:17;;;;;;;48.47;18.02;;;3.00;97.80;;;;;;6205232;28;20464;-81
2022/04/03 01:02:20;;;;;;;37.28;17.00;;;3.00;97.70;;;;;;6209291;28;20803;-81
2022/04/03 01:08:38;;;;;;;42.00;18.42;;;3.10;97.80;;;;;;6198713;28;20068;-82
2022/04/03 01:11:45;;;;;;;39.03;17.02;;;3.10;97.80;;;;;;6217592;28;20050;-82
2022/04/03 01:18:15;;;;;;;44.33;17.50;;;3.20;97.70;;;;;;6202941;28;20045;-80
2022/04/03 01:21:21;;;;;;;44.85;16.98;;;3.20;97.70;;;;;;6204910;28;20058;-82
2022/04/03 01:24:27;;;;;;;41.70;17.00;;;3.30;97.60;;;;;;6204424;28;20523;-81
2022/04/03 01:27:34;;;;;;;39.97;15.88;;;3.30;97.80;;;;;;6205509;28;20141;-82
2022/04/03 01:30:38;;;;;;;41.05;17.88;;;3.30;97.60;;;;;;6198834;28;20082;-82
2022/04/03 01:33:45;;;;;;;35.45;18.48;;;3.30;97.60;;;;;;6206128;28;20061;-81
2022/04/03 01:36:53;;;;;;;47.53;20.90;;;3.30;97.60;;;;;;6202335;28;20048;-82
2022/04/03 01:40:08;;;;;;;45.67;19.60;;;3.30;97.60;;;;;;6217286;28;20130;-82
2022/04/03 01:43:12;;;;;;;40.08;18.02;;;3.40;97.50;;;;;;6207537;28;20058;-81
2022/04/03 01:46:17;;;;;;;42.35;18.48;;;3.30;97.50;;;;;;6207772;28;20125;-81
2022/04/03 01:49:20;;;;;;;50.85;20.42;;;3.40;97.60;;;;;;6206397;28;20061;-82
2022/04/03 01:52:31;;;;;;;51.05;21.88;;;3.40;97.50;;;;;;6199432;28;20062;-82
2022/04/03 01:55:34;;;;;;;50.92;19.15;;;3.40;97.40;;;;;;6221277;28;20061;-82
2022/04/03 01:58:45;;;;;;;45.42;19.50;;;3.40;97.60;;;;;;6212425;28;20412;-82
2022/04/03 02:01:53;;;;;;;54.67;22.42;;;3.40;97.50;;;;;;6205180;28;20126;-82
2022/04/03 02:05:01;;;;;;;48.05;19.92;;;3.40;97.40;;;;;;6204233;28;20046;-81
2022/04/03 02:08:06;;;;;;;50.25;20.35;;;3.40;97.60;;;;;;6206901;28;20057;-82
2022/04/03 02:11:22;;;;;;;42.85;18.52;;;3.30;97.60;;;;;;6207482;28;20047;-81
2022/04/03 02:14:28;;;;;;;47.58;19.67;;;3.40;97.60;;;;;;6208354;28;20548;-81
2022/04/03 02:17:37;;;;;;;50.78;19.83;;;3.40;97.50;;;;;;6207188;28;20057;-81
2022/04/03 02:20:41;;;;;;;53.05;21.25;;;3.50;97.50;;;;;;6199858;28;20499;-81
2022/04/03 02:28:15;;;;;;;51.42;20.95;;;3.50;97.40;;;;;;6141452;28;20050;-82
2022/04/03 02:34:55;;;;;;;48.05;19.70;;;3.50;97.40;;;;;;6163359;28;20084;-82
2022/04/03 02:37:57;;;;;;;57.97;20.98;;;3.50;97.40;;;;;;6169282;28;20046;-81
2022/04/03 02:41:08;;;;;;;40.78;17.52;;;3.50;97.50;;;;;;6176794;28;20572;-81
2022/04/03 02:44:11;;;;;;;44.25;19.40;;;3.60;97.40;;;;;;6188231;28;20058;-81
2022/04/03 02:47:15;;;;;;;44.33;18.95;;;3.50;97.40;;;;;;6209824;28;20080;-82
2022/04/03 02:50:32;;;;;;;49.90;19.80;;;3.60;97.50;;;;;;6197442;28;20050;-81
2022/04/03 03:02:16;;;;;;;46.88;19.52;;;3.60;97.40;;;;;;6314866;23;20133;-83
2022/04/03 03:05:41;;;;;;;52.03;20.08;;;3.60;97.50;;;;;;6190444;28;20153;-83
2022/04/03 03:09:04;;;;;;;46.40;18.40;;;3.60;97.50;;;;;;6206190;28;20535;-83
2022/04/03 03:16:39;;;;;;;44.50;18.55;;;3.70;97.40;;;;;;6193891;28;20057;-83
2022/04/03 03:31:03;;;;;;;48.90;19.50;;;3.70;97.30;;;;;;6079081;28;20065;-82
2022/04/03 03:34:12;;;;;;;41.90;17.25;;;3.70;97.40;;;;;;6219172;28;20101;-83
2022/04/03 03:37:14;;;;;;;43.60;19.02;;;3.60;97.40;;;;;;6230314;28;20482;-83
2022/04/03 03:40:21;;;;;;;40.88;17.85;;;3.70;97.40;;;;;;6225618;28;20480;-83
2022/04/03 03:43:23;;;;;;;42.63;17.77;;;3.70;97.40;;;;;;6221919;28;20117;-83
2022/04/03 03:46:25;;;;;;;39.17;16.83;;;3.80;97.40;;;;;;6228864;28;20074;-83
2022/04/03 03:49:29;;;;;;;44.72;18.80;;;3.70;97.40;;;;;;6229255;28;20038;-83
2022/04/03 03:52:31;;;;;;;40.88;17.20;;;3.80;97.30;;;;;;6229145;28;20057;-83
2022/04/03 03:55:35;;;;;;;39.72;18.92;;;3.80;97.30;;;;;;6230971;28;20137;-83
2022/04/03 03:58:37;;;;;;;48.47;18.00;;;3.80;97.30;;;;;;6229032;28;20049;-82
2022/04/03 04:01:41;;;;;;;46.55;18.45;;;3.90;97.30;;;;;;6227774;28;20050;-83
2022/04/03 04:05:07;;;;;;;37.85;17.67;;;3.80;97.20;;;;;;6221688;28;20073;-84
2022/04/03 04:20:39;;;;;;;36.83;16.60;;;3.90;97.20;;;;;;6177076;28;20402;-83
2022/04/03 04:23:41;;;;;;;38.38;17.30;;;3.80;97.10;;;;;;6147849;28;20051;-84
2022/04/03 04:26:52;;;;;;;34.60;15.32;;;3.90;97.20;;;;;;6180390;28;20507;-83
2022/04/03 04:29:56;;;;;;;35.50;16.92;;;3.90;97.20;;;;;;6202726;28;20052;-83
2022/04/03 04:32:57;;;;;;;37.83;16.50;;;3.90;97.10;;;;;;6217280;28;20516;-82
2022/04/03 04:35:59;;;;;;;33.60;15.68;;;3.90;97.20;;;;;;6226316;28;20054;-83
2022/04/03 04:39:01;;;;;;;39.05;16.95;;;3.90;97.20;;;;;;6225480;28;20052;-83
2022/04/03 04:42:03;;;;;;;32.55;15.45;;;3.90;97.20;;;;;;6222560;28;20221;-81
2022/04/03 04:45:09;;;;;;;35.60;15.55;;;4.00;97.20;;;;;;6224292;28;20073;-82
2022/04/03 04:48:11;;;;;;;37.20;15.98;;;4.00;97.10;;;;;;6226026;28;20056;-82
2022/04/03 04:51:13;;;;;;;31.42;15.70;;;4.00;97.10;;;;;;6225149;28;20060;-82
2022/04/03 04:54:15;;;;;;;33.25;16.05;;;4.00;97.00;;;;;;6233408;28;20080;-82
2022/04/03 04:57:17;;;;;;;31.80;15.35;;;4.00;97.10;;;;;;6230582;28;20038;-82
2022/04/03 05:00:21;;;;;;;38.55;16.20;;;4.00;97.20;;;;;;6228138;28;20046;-82
2022/04/03 05:03:23;;;;;;;33.40;14.85;;;4.00;97.10;;;;;;6232247;28;20052;-82
2022/04/03 05:06:26;;;;;;;31.42;14.98;;;4.00;97.00;;;;;;6232346;28;20133;-82
2022/04/03 05:09:28;;;;;;;36.75;15.80;;;4.00;97.10;;;;;;6231044;28;20564;-82
2022/04/03 05:12:30;;;;;;;30.13;16.58;;;4.00;97.10;;;;;;6231810;28;20068;-82
2022/04/03 05:15:35;;;;;;;32.20;15.25;;;3.90;97.00;;;;;;6232435;28;20050;-82
2022/04/03 05:18:37;;;;;;;32.78;15.48;;;3.90;97.00;;;;;;6231981;28;20647;-82
2022/04/03 05:21:39;;;;;;;27.58;12.48;;;3.90;97.10;;;;;;6231104;28;20056;-82
2022/04/03 05:24:40;;;;;;;30.23;12.57;;;3.90;97.20;;;;;;6232618;28;20046;-82
2022/04/03 05:27:44;;;;;;;29.23;14.10;;;3.90;97.10;;;;;;6232082;28;20133;-83
2022/04/03 05:30:48;;;;;;;26.80;12.82;;;3.90;97.20;;;;;;6231346;28;20050;-83
2022/04/03 05:33:50;;;;;;;28.40;13.52;;;3.90;97.10;;;;;;6231369;28;20045;-83
2022/04/03 05:36:51;;;;;;;32.85;15.43;;;4.00;97.10;;;;;;6230946;28;20066;-82
2022/04/03 05:39:54;;;;;;;28.27;14.27;;;4.00;97.00;;;;;;6231300;28;20108;-82
2022/04/03 05:42:56;;;;;;;35.78;15.32;;;4.00;97.10;;;;;;6230167;28;20046;-82
2022/04/03 05:45:59;;;;;;;33.92;14.73;;;4.00;97.00;;;;;;6210160;28;20072;-80
2022/04/03 05:49:00;;;;;;;25.27;13.23;;;4.10;97.00;;;;;;6206346;28;20050;-80
2022/04/03 05:52:04;;;;;;;29.50;14.63;;;4.10;97.00;;;;;;6207642;28;20058;-81
2022/04/03 05:55:08;;;;;;;28.38;14.52;;;4.10;97.00;;;;;;6207449;28;20061;-81
2022/04/03 05:58:10;;;;;;;22.95;12.77;;;4.10;97.00;;;;;;6207322;28;20057;-81
2022/04/03 06:01:13;;;;;;;28.17;14.10;;;4.20;97.00;;;;;;6206606;28;20101;-81
2022/04/03 06:04:16;;;;;;;30.02;14.65;;;4.30;97.00;;;;;;6205120;28;20137;-81
2022/04/03 06:07:17;;;;;;;31.77;14.60;;;4.30;97.10;;;;;;6207353;28;20053;-81
2022/04/03 06:10:20;;;;;;;30.58;14.02;;;4.40;97.00;;;;;;6205592;28;20138;-81
2022/04/03 06:13:24;;;;;;;32.22;14.57;;;4.40;97.00;;;;;;6205843;28;20130;-81
2022/04/03 06:16:27;;;;;;;24.70;12.45;;;4.50;96.90;;;;;;6206264;28;20496;-81
2022/04/03 06:19:29;;;;;;;32.20;14.38;;;4.50;97.10;;;;;;6222932;28;20132;-81
2022/04/03 06:22:31;;;;;;;27.20;14.30;;;4.60;96.80;;;;;;6229169;28;20052;-81
2022/04/03 06:25:32;;;;;;;33.50;14.27;;;4.70;96.60;;;;;;6230185;28;20042;-81
2022/04/03 06:28:34;;;;;;;20.88;12.10;;;4.70;96.60;;;;;;6228589;28;20125;-81
2022/04/03 06:31:37;;;;;;;15.93;9.95;;;4.80;96.50;;;;;;6245291;22;20038;-81
2022/04/03 06:34:39;;;;;;;16.20;8.82;;;4.80;96.50;;;;;;6233756;28;20061;-85
2022/04/03 06:37:42;;;;;;;18.48;9.63;;;4.90;96.20;;;;;;6233316;28;20519;-85
2022/04/03 06:40:48;;;;;;;21.38;9.98;;;5.10;96.50;;;;;;6234346;28;20041;-84
2022/04/03 06:43:50;;;;;;;27.90;13.80;;;5.20;96.30;;;;;;6230240;28;20045;-82
2022/04/03 06:46:54;;;;;;;23.20;11.15;;;5.40;96.20;;;;;;6209199;28;20054;-83
2022/04/03 06:49:55;;;;;;;14.52;8.43;;;5.80;96.00;;;;;;6205468;28;20053;-83
2022/04/03 06:52:57;;;;;;;15.43;7.50;;;6.00;95.40;;;;;;6206296;28;20464;-83
2022/04/03 06:55:59;;;;;;;15.13;7.80;;;6.30;95.30;;;;;;6208518;28;20133;-84
2022/04/03 06:59:01;;;;;;;14.13;7.97;;;6.50;94.80;;;;;;6204803;28;20046;-83
2022/04/03 07:02:04;;;;;;;9.85;6.47;;;6.80;93.80;;;;;;6205088;28;20057;-83
2022/04/03 07:05:09;;;;;;;12.95;8.23;;;7.10;93.80;;;;;;6207516;28;20056;-83
2022/04/03 07:08:11;;;;;;;10.65;6.07;;;7.40;93.20;;;;;;6207482;28;20077;-83
2022/04/03 07:11:13;;;;;;;10.60;5.75;;;7.70;92.80;;;;;;6207110;28;20526;-83
2022/04/03 07:14:15;;;;;;;9.65;5.10;;;8.10;92.60;;;;;;6207708;28;20070;-84
2022/04/03 07:17:18;;;;;;;8.02;4.38;;;8.50;91.60;;;;;;6206187;28;20522;-83
2022/04/03 07:20:20;;;;;;;6.25;3.88;;;9.00;91.20;;;;;;6205864;28;20184;-83
2022/04/03 07:23:24;;;;;;;6.53;4.15;;;9.70;90.40;;;;;;6204719;28;20064;-84
2022/04/03 07:26:25;;;;;;;6.47;3.83;;;11.10;86.10;;;;;;6203091;28;20057;-83
2022/04/03 07:29:27;;;;;;;5.43;3.53;;;12.60;74.90;;;;;;6203382;28;20048;-83
2022/04/03 07:32:31;;;;;;;6.72;3.10;;;12.40;68.10;;;;;;6205577;28;20165;-83
2022/04/03 07:35:33;;;;;;;5.47;3.70;;;11.60;71.80;;;;;;6205341;28;20050;-83
2022/04/03 07:38:35;;;;;;;6.18;3.72;;;10.80;72.00;;;;;;6204250;28;20042;-83
2022/04/03 07:41:37;;;;;;;5.30;3.42;;;10.00;76.20;;;;;;6204072;28;20056;-83
2022/04/03 07:44:39;;;;;;;5.47;3.15;;;9.60;78.10;;;;;;6209900;28;20041;-83
2022/04/03 07:47:49;;;;;;;6.20;3.50;;;9.90;75.40;;;;;;6229197;28;20113;-83
2022/04/03 07:50:52;;;;;;;4.40;3.13;;;9.90;73.80;;;;;;6231575;28;20042;-83
2022/04/03 07:53:54;;;;;;;6.28;3.63;;;9.40;77.60;;;;;;6230492;28;20041;-84
2022/04/03 07:56:55;;;;;;;10.40;3.50;;;9.60;78.50;;;;;;6230437;28;20046;-83
2022/04/03 07:59:57;;;;;;;6.55;2.85;;;9.30;74.20;;;;;;6230002;28;20143;-84
2022/04/03 08:03:00;;;;;;;8.18;3.72;;;9.30;77.00;;;;;;6229871;28;20402;-82
2022/04/03 08:06:02;;;;;;;6.97;2.97;;;9.10;75.00;;;;;;6229170;28;20539;-82
2022/04/03 08:09:05;;;;;;;9.77;3.67;;;8.90;75.70;;;;;;6229820;28;20074;-84
2022/04/03 08:12:09;;;;;;;4.45;2.83;;;8.80;79.50;;;;;;6232442;28;20073;-84
2022/04/03 08:15:12;;;;;;;5.72;3.38;;;8.70;79.50;;;;;;6231348;28;20056;-83
2022/04/03 08:18:15;;;;;;;8.40;3.30;;;8.60;76.70;;;;;;6229872;28;20037;-84
2022/04/03 08:21:18;;;;;;;6.25;3.38;;;8.30;77.20;;;;;;6230313;28;20069;-83
2022/04/03 08:24:20;;;;;;;5.07;3.22;;;8.10;75.60;;;;;;6231276;28;20061;-83
2022/04/03 08:27:22;;;;;;;9.38;3.88;;;7.90;77.30;;;;;;6230885;28;20076;-82
2022/04/03 08:30:26;;;;;;;5.85;4.50;;;7.80;78.70;;;;;;6230194;28;20038;-83
2022/04/03 08:33:29;;;;;;;13.63;9.30;;;8.30;79.10;;;;;;6230102;28;20169;-83
2022/04/03 08:36:31;;;;;;;47.05;37.08;;;9.60;76.20;;;;;;6230313;28;20217;-82
2022/04/03 08:39:33;;;;;;;14.80;10.48;;;9.90;74.40;;;;;;6201889;28;20149;-84
2022/04/03 08:42:39;;;;;;;7.45;3.90;;;10.30;77.00;;;;;;6228435;28;20038;-83
2022/04/03 08:45:43;;;;;;;3.63;2.40;;;12.20;74.40;;;;;;6221261;28;20101;-82
2022/04/03 08:48:48;;;;;;;5.88;2.97;;;13.90;67.30;;;;;;6226272;28;20045;-82
2022/04/03 08:51:52;;;;;;;9.73;2.40;;;15.10;64.10;;;;;;6230995;28;20049;-84
2022/04/03 08:54:54;;;;;;;9.10;2.45;;;15.80;57.10;;;;;;6228166;28;20061;-83
2022/04/03 08:57:57;;;;;;;5.18;2.45;;;16.80;52.90;;;;;;6227918;28;20081;-84
2022/04/03 09:00:59;;;;;;;4.70;2.17;;;15.80;47.40;;;;;;6230797;28;20037;-85
2022/04/03 09:04:02;;;;;;;7.32;2.10;;;13.40;53.10;;;;;;6226711;28;20127;-81
2022/04/03 09:07:04;;;;;;;4.07;1.60;;;12.80;55.20;;;;;;6224897;28;20053;-79
2022/04/03 09:10:08;;;;;;;3.88;2.50;;;14.30;56.00;;;;;;6225389;28;20495;-80
2022/04/03 09:13:11;;;;;;;4.07;2.10;;;16.00;52.90;;;;;;6219633;28;20161;-81
2022/04/03 09:16:13;;;;;;;3.95;2.40;;;15.50;50.70;;;;;;6224007;28;20053;-82
2022/04/03 09:19:17;;;;;;;3.00;1.80;;;13.90;49.70;;;;;;6224057;28;20073;-80
2022/04/03 09:22:28;;;;;;;4.18;2.38;;;12.30;57.60;;;;;;6230166;28;20048;-82
2022/04/03 09:25:32;;;;;;;2.90;2.13;;;11.00;58.30;;;;;;6226382;28;20049;-81
2022/04/03 09:28:39;;;;;;;2.67;1.85;;;10.10;62.10;;;;;;6229763;28;20422;-83
2022/04/03 09:31:41;;;;;;;3.17;2.38;;;9.50;65.40;;;;;;6230538;28;20050;-84
2022/04/03 09:34:45;;;;;;;4.50;3.63;;;9.10;65.70;;;;;;6227072;28;20050;-80
2022/04/03 09:38:06;;;;;;;7.20;3.33;;;8.80;70.90;;;;;;6225538;28;20049;-79
2022/04/03 09:41:08;;;;;;;3.53;1.95;;;8.80;74.50;;;;;;6228212;28;20056;-80
2022/04/03 09:47:35;;;;;;;4.90;2.58;;;8.20;71.20;;;;;;6197717;28;20112;-81
2022/04/03 09:50:55;;;;;;;5.50;2.47;;;7.70;74.00;;;;;;6229605;28;20069;-81
2022/04/03 09:54:02;;;;;;;5.95;2.53;;;7.20;77.10;;;;;;6230296;28;20065;-79
2022/04/03 09:57:18;;;;;;;5.72;3.05;;;6.90;84.00;;;;;;6229240;28;20100;-80
2022/04/03 10:00:31;;;;;;;3.75;2.45;;;6.80;85.80;;;;;;6229230;28;20054;-80
2022/04/03 10:03:32;;;;;;;8.15;3.30;;;6.90;87.00;;;;;;6229308;28;20081;-82
2022/04/03 10:06:38;;;;;;;3.35;2.15;;;6.90;86.80;;;;;;6228401;28;20041;-81
2022/04/03 10:09:47;;;;;;;9.32;2.97;;;6.80;85.20;;;;;;6228735;28;20057;-81
2022/04/03 10:12:49;;;;;;;4.72;2.70;;;6.60;85.20;;;;;;6224427;28;20039;-81
2022/04/03 10:15:52;;;;;;;4.78;2.67;;;6.50;86.80;;;;;;6224431;28;20050;-81
2022/04/03 10:18:53;;;;;;;6.85;3.05;;;6.60;86.90;;;;;;6228258;28;20057;-81
2022/04/03 10:21:59;;;;;;;5.75;2.97;;;6.70;86.60;;;;;;6220365;28;20054;-81
2022/04/03 10:25:11;;;;;;;5.45;2.50;;;6.80;88.10;;;;;;6225980;28;20542;-81
2022/04/03 10:28:17;;;;;;;5.22;3.17;;;7.00;87.40;;;;;;6227582;28;20558;-82
2022/04/03 10:31:19;;;;;;;3.65;2.22;;;7.20;86.40;;;;;;6230050;28;20050;-81
2022/04/03 10:34:22;;;;;;;9.65;3.90;;;7.20;85.00;;;;;;6228938;28;20046;-81
2022/04/03 10:37:31;;;;;;;3.92;2.63;;;7.30;82.30;;;;;;6230042;28;20041;-81
2022/04/03 10:40:34;;;;;;;5.18;2.53;;;7.30;84.20;;;;;;6228894;28;20116;-81
2022/04/03 10:43:40;;;;;;;10.27;3.53;;;7.40;82.60;;;;;;6215149;28;20078;-81
2022/04/03 10:47:19;;;;;;;4.40;2.47;;;7.40;81.20;;;;;;6227051;28;20503;-81
2022/04/03 10:50:21;;;;;;;5.88;2.80;;;7.30;78.30;;;;;;6223421;28;20053;-81
2022/04/03 10:53:27;;;;;;;3.72;2.53;;;7.10;75.00;;;;;;6222442;28;20401;-80
2022/04/03 10:56:30;;;;;;;4.75;2.08;;;6.80;71.60;;;;;;6231103;28;20049;-83
2022/04/03 10:59:31;;;;;;;3.08;2.50;;;6.70;75.50;;;;;;6230536;28;20057;-81
2022/04/03 11:02:34;;;;;;;6.55;3.20;;;6.50;73.80;;;;;;6231028;28;20038;-81
2022/04/03 11:05:43;;;;;;;4.10;2.60;;;6.50;76.00;;;;;;6230176;28;20056;-82
2022/04/03 11:09:00;;;;;;;5.63;3.45;;;6.60;77.30;;;;;;6191703;28;20049;-83
2022/04/03 11:12:02;;;;;;;4.68;3.03;;;6.60;76.40;;;;;;6238271;28;20060;-80
2022/04/03 11:15:13;;;;;;;5.35;3.17;;;6.60;74.60;;;;;;6232208;28;20057;-81
2022/04/03 11:18:28;;;;;;;4.75;2.80;;;6.50;74.80;;;;;;6230842;28;20046;-82
2022/04/03 11:21:37;;;;;;;10.75;3.97;;;6.50;76.80;;;;;;6231416;28;20583;-84
2022/04/03 11:24:41;;;;;;;4.82;2.58;;;6.60;77.10;;;;;;6231492;28;20053;-81
2022/04/03 11:27:42;;;;;;;5.28;3.20;;;6.60;73.50;;;;;;6229340;28;20049;-81
2022/04/03 11:34:03;;;;;;;204.68;77.65;;;6.70;75.80;;;;;;6232115;28;20104;-81
2022/04/03 11:37:10;;;;;;;8.98;5.93;;;6.90;79.10;;;;;;6225473;28;20185;-81
2022/04/03 11:40:15;;;;;;;5.82;3.08;;;7.30;77.90;;;;;;6230057;28;20404;-82
2022/04/03 11:43:19;;;;;;;5.75;3.05;;;7.30;72.40;;;;;;6228704;28;20112;-81
2022/04/03 11:46:23;;;;;;;5.75;2.95;;;7.30;70.40;;;;;;6229686;28;20081;-80
2022/04/03 11:49:28;;;;;;;6.30;3.25;;;7.20;71.90;;;;;;6225514;28;20053;-81
2022/04/03 11:52:30;;;;;;;5.88;2.60;;;7.20;72.40;;;;;;6205218;28;20042;-81
2022/04/03 11:55:36;;;;;;;5.70;3.15;;;7.20;72.00;;;;;;6204918;28;20131;-82
2022/04/03 11:58:42;;;;;;;5.35;2.83;;;7.40;73.40;;;;;;6204879;28;20058;-82
2022/04/03 12:02:13;;;;;;;6.30;2.72;;;7.70;72.60;;;;;;6200550;28;20042;-82
2022/04/03 12:05:33;;;;;;;3.50;2.47;;;8.00;67.60;;;;;;6206708;28;20054;-82
2022/04/03 12:08:39;;;;;;;6.88;2.95;;;8.20;72.50;;;;;;6204848;28;20047;-82
2022/04/03 12:11:48;;;;;;;5.40;3.25;;;8.80;75.30;;;;;;6206404;28;20054;-81
2022/04/03 12:15:03;;;;;;;6.75;3.30;;;9.10;69.90;;;;;;6225860;28;20053;-81
2022/04/03 12:18:18;;;;;;;4.65;3.83;;;9.30;74.00;;;;;;6220470;28;20056;-82
2022/04/03 12:21:21;;;;;;;5.85;4.32;;;9.50;70.10;;;;;;6229192;28;20097;-82
2022/04/03 12:24:25;;;;;;;4.97;3.38;;;9.50;69.70;;;;;;6231772;28;20057;-82
2022/04/03 12:27:34;;;;;;;8.23;3.40;;;9.60;69.80;;;;;;6231035;28;20049;-82
2022/04/03 12:30:36;;;;;;;5.35;3.10;;;9.60;67.40;;;;;;6230484;28;20133;-82
2022/04/03 12:33:38;;;;;;;3.65;2.75;;;9.60;64.80;;;;;;6228238;28;20054;-82
2022/04/03 12:36:42;;;;;;;5.10;2.83;;;9.70;68.30;;;;;;6224943;28;20067;-83
2022/04/03 12:39:45;;;;;;;5.70;2.80;;;10.00;67.50;;;;;;6223164;28;20128;-82
2022/04/03 12:42:49;;;;;;;4.85;2.95;;;10.20;62.00;;;;;;6227300;28;20119;-83
2022/04/03 12:45:57;;;;;;;3.53;2.70;;;10.20;62.60;;;;;;6226892;28;20415;-83
2022/04/03 12:48:58;;;;;;;7.80;2.78;;;10.40;66.40;;;;;;6226273;28;20041;-83
2022/04/03 12:52:00;;;;;;;6.82;3.45;;;11.00;59.80;;;;;;6217603;28;20129;-83
2022/04/03 12:55:02;;;;;;;3.95;2.60;;;11.10;61.80;;;;;;6213547;28;20266;-83
2022/04/03 12:58:29;;;;;;;3.63;2.50;;;11.30;60.90;;;;;;6220682;28;20054;-83
2022/04/03 13:01:30;;;;;;;7.00;2.80;;;11.60;59.00;;;;;;6229453;28;20109;-83
2022/04/03 13:05:04;;;;;;;6.13;2.47;;;11.60;57.00;;;;;;6235050;28;20421;-80
2022/04/03 13:08:48;;;;;;;6.00;2.13;;;11.40;58.70;;;;;;6224333;28;20527;-80
2022/04/03 13:11:52;;;;;;;5.80;3.13;;;11.60;61.50;;;;;;6223528;28;20038;-81
2022/04/03 13:14:55;;;;;;;4.15;2.13;;;11.80;58.70;;;;;;6224159;28;20045;-80
2022/04/03 13:17:58;;;;;;;4.85;2.67;;;11.90;57.40;;;;;;6202663;28;20528;-79
2022/04/03 13:21:02;;;;;;;4.38;2.47;;;11.90;56.70;;;;;;6218763;28;20133;-78
2022/04/03 13:24:05;;;;;;;5.00;2.20;;;12.00;60.30;;;;;;6228325;28;20058;-78
2022/04/03 13:27:07;;;;;;;3.60;2.05;;;12.20;59.30;;;;;;6229475;28;20053;-81
2022/04/03 13:30:11;;;;;;;3.67;2.17;;;12.40;55.10;;;;;;6227908;28;20057;-82
2022/04/03 13:33:14;;;;;;;5.40;2.35;;;12.10;55.30;;;;;;6228580;28;20060;-83
2022/04/03 13:36:16;;;;;;;4.55;2.42;;;12.00;53.80;;;;;;6227824;28;20053;-80
2022/04/03 13:39:19;;;;;;;4.28;2.30;;;11.80;56.00;;;;;;6228376;28;20488;-83
2022/04/03 13:42:21;;;;;;;5.13;2.08;;;11.70;50.50;;;;;;6227122;28;20054;-81
2022/04/03 13:45:56;;;;;;;4.68;2.00;;;11.40;55.30;;;;;;6219424;28;20129;-81
2022/04/03 13:48:48;;;;;;;5.18;2.22;;;11.10;52.40;;;;;;6226288;28;20184;-80
2022/04/03 13:51:50;;;;;;;3.28;1.95;;;11.00;57.60;;;;;;6220264;28;20056;-81
2022/04/03 13:54:52;;;;;;;3.80;2.50;;;11.30;57.00;;;;;;6227104;28;20520;-84
2022/04/03 13:57:54;;;;;;;3.55;2.00;;;11.40;52.10;;;;;;6226713;28;20050;-82
2022/04/03 14:00:58;;;;;;;3.47;2.28;;;11.70;56.10;;;;;;6226507;28;20125;-82
2022/04/03 14:04:02;;;;;;;2.67;1.98;;;12.20;53.20;;;;;;6228772;28;20049;-84
2022/04/03 14:07:05;;;;;;;2.92;1.90;;;12.40;49.40;;;;;;6227120;28;20049;-81
2022/04/03 14:10:08;;;;;;;3.92;1.92;;;12.70;54.00;;;;;;6227626;28;20559;-83
2022/04/03 14:13:10;;;;;;;5.43;1.75;;;13.20;48.20;;;;;;6220856;28;20057;-81
2022/04/03 14:16:15;;;;;;;3.00;1.90;;;13.30;51.40;;;;;;6228702;28;20136;-80
2022/04/03 14:19:17;;;;;;;2.67;1.92;;;13.70;55.90;;;;;;6227439;28;20626;-80
2022/04/03 14:22:38;;;;;;;2.67;1.75;;;13.90;50.80;;;;;;6226793;28;20077;-83
2022/04/03 14:25:41;;;;;;;8.18;3.95;;;13.50;50.70;;;;;;6227162;28;20503;-80
2022/04/03 14:28:43;;;;;;;22.48;10.77;;;13.10;50.70;;;;;;6226407;28;20049;-81
2022/04/03 14:31:47;;;;;;;5.70;2.85;;;12.90;52.60;;;;;;6226915;28;20105;-80
2022/04/03 14:34:58;;;;;;;5.30;2.55;;;12.50;50.00;;;;;;6225183;28;20057;-82
2022/04/03 14:38:00;;;;;;;3.70;2.10;;;12.00;50.90;;;;;;6227343;28;20670;-82
2022/04/03 14:41:02;;;;;;;4.72;2.15;;;11.40;49.30;;;;;;6228308;28;20050;-82
2022/04/03 14:44:05;;;;;;;4.20;2.22;;;10.80;50.60;;;;;;6227553;28;20076;-81
2022/04/03 14:47:09;;;;;;;9.32;2.80;;;10.30;48.80;;;;;;6242026;28;20149;-82
2022/04/03 14:50:13;;;;;;;6.13;2.20;;;9.80;51.30;;;;;;6242247;28;20077;-80
2022/04/03 15:07:55;;;;;;;;;;;;;;;;;;;;;
2022/04/03 15:26:32;;;;;;;5.13;1.80;;;9.90;54.70;;;;;;6111850;29;20114;-85
2022/04/03 15:34:39;;;;;;;;;;;;;;;;;;;;;
2022/04/03 15:41:19;;;;;;;3.40;2.22;;;9.20;54.30;;;;;;6200735;28;20057;-82
2022/04/03 15:44:27;;;;;;;3.60;2.83;;;9.00;54.80;;;;;;6233537;28;20125;-80
2022/04/03 15:47:32;;;;;;;3.30;2.42;;;8.80;52.60;;;;;;6220714;28;20060;-80
2022/04/03 15:50:35;;;;;;;4.05;1.98;;;8.60;52.80;;;;;;6217203;28;20057;-80
2022/04/03 15:53:36;;;;;;;4.80;3.53;;;8.40;55.00;;;;;;6211582;28;20050;-81
2022/04/03 15:56:44;;;;;;;4.93;2.50;;;8.30;59.10;;;;;;6199763;28;20042;-82
2022/04/03 16:03:14;;;;;;;5.97;2.97;;;8.30;56.00;;;;;;6197882;28;20364;-81
2022/04/03 16:06:22;;;;;;;3.85;2.70;;;8.40;58.50;;;;;;6200247;28;20054;-81
2022/04/03 16:09:26;;;;;;;8.90;3.57;;;8.30;60.50;;;;;;6200471;28;20050;-81
2022/04/03 16:12:30;;;;;;;7.68;3.80;;;8.10;61.50;;;;;;6224709;28;20049;-82
2022/04/03 16:15:57;;;;;;;4.93;3.00;;;8.00;63.00;;;;;;6243756;28;20056;-83
2022/04/03 16:19:01;;;;;;;5.47;2.45;;;7.90;62.00;;;;;;6245754;28;20130;-81
2022/04/03 16:22:06;;;;;;;6.07;3.03;;;7.80;62.50;;;;;;6216674;28;20467;-81
2022/04/03 16:25:09;;;;;;;4.65;2.50;;;7.80;61.30;;;;;;6203294;28;20053;-82
2022/04/03 16:28:14;;;;;;;4.07;2.70;;;7.70;63.00;;;;;;6204679;28;20057;-82
2022/04/03 16:31:17;;;;;;;6.00;2.33;;;7.80;61.60;;;;;;6228241;28;20106;-81
2022/04/03 16:34:19;;;;;;;4.30;2.58;;;7.80;62.00;;;;;;6219305;28;20055;-81
2022/04/03 16:37:21;;;;;;;4.82;2.55;;;7.90;62.90;;;;;;6195628;28;20050;-82
2022/04/03 16:40:24;;;;;;;5.97;2.85;;;7.90;63.40;;;;;;6227659;28;20150;-79
2022/04/03 16:43:26;;;;;;;7.03;2.85;;;8.00;62.80;;;;;;6237508;28;20145;-80
2022/04/03 16:46:29;;;;;;;3.35;2.40;;;8.00;61.20;;;;;;6230440;28;20073;-82
2022/04/03 16:57:09;;;;;;;6.57;2.92;;;7.70;60.60;;;;;;6222631;28;20415;-84
2022/04/03 17:00:13;;;;;;;7.50;2.67;;;7.50;60.80;;;;;;6226555;28;20608;-83
2022/04/03 17:03:18;;;;;;;7.57;4.00;;;7.50;61.60;;;;;;6223797;28;20072;-84
2022/04/03 17:06:20;;;;;;;6.97;2.83;;;7.40;64.90;;;;;;6227079;28;20049;-83
2022/04/03 17:09:22;;;;;;;6.22;2.88;;;7.30;61.70;;;;;;6226864;28;20049;-80
2022/04/03 17:12:24;;;;;;;3.72;2.15;;;7.20;60.60;;;;;;6228343;28;20045;-83
2022/04/03 17:15:26;;;;;;;4.13;2.53;;;7.20;61.10;;;;;;6243697;28;20058;-83
2022/04/03 17:18:30;;;;;;;5.53;3.00;;;7.10;60.90;;;;;;6250564;28;20073;-83
2022/04/03 17:21:32;;;;;;;4.78;2.45;;;7.10;61.30;;;;;;6250154;28;20041;-83
2022/04/03 17:24:40;;;;;;;3.92;2.55;;;7.00;61.90;;;;;;6239915;28;20062;-82
2022/04/03 17:27:42;;;;;;;7.38;3.20;;;7.00;62.20;;;;;;6252381;28;20629;-82
2022/04/03 17:30:45;;;;;;;4.88;2.53;;;7.00;62.10;;;;;;6252579;28;20518;-84
2022/04/03 17:37:53;;;;;;;7.63;3.17;;;6.90;62.10;;;;;;6120217;29;20129;-82
2022/04/03 17:41:01;;;;;;;3.58;2.13;;;6.80;63.00;;;;;;6206200;28;20041;-83
2022/04/03 17:44:04;;;;;;;4.47;2.42;;;6.80;64.20;;;;;;6239487;28;20762;-82
2022/04/03 17:47:06;;;;;;;5.60;3.72;;;6.70;64.70;;;;;;6227234;28;20046;-81
2022/04/03 17:50:09;;;;;;;6.85;3.38;;;6.70;65.50;;;;;;6225707;28;20050;-82
2022/04/03 17:53:15;;;;;;;4.00;2.45;;;6.60;65.50;;;;;;6227678;28;20057;-83
2022/04/03 17:56:17;;;;;;;4.82;2.97;;;6.50;65.40;;;;;;6215767;28;20059;-81
2022/04/03 17:59:24;;;;;;;4.35;2.55;;;6.40;66.00;;;;;;6202221;28;20046;-83
2022/04/03 18:02:26;;;;;;;5.78;3.60;;;6.30;66.50;;;;;;6201751;28;20050;-83
2022/04/03 18:05:33;;;;;;;4.40;2.53;;;6.10;67.10;;;;;;6199741;28;20054;-85
2022/04/03 18:08:37;;;;;;;4.50;2.88;;;5.90;67.90;;;;;;6202064;28;20054;-86
2022/04/03 18:11:42;;;;;;;4.82;2.67;;;5.80;68.90;;;;;;6219128;28;20056;-87
2022/04/03 18:14:44;;;;;;;5.70;3.15;;;5.60;70.30;;;;;;6245196;28;20050;-84
2022/04/03 18:17:46;;;;;;;7.85;3.00;;;5.50;70.80;;;;;;6223555;28;20113;-82
2022/04/03 18:20:50;;;;;;;5.60;3.30;;;5.40;71.60;;;;;;6250179;28;20046;-83
2022/04/03 18:23:54;;;;;;;7.40;3.45;;;5.30;72.60;;;;;;6255636;28;20042;-87